Kevil, Kentucky
Current Conditions -  °F | °C
As of 10:53 AM on Friday 24 Oct 2014 (Local Time) from KPAH Reporting Station
Scattered Clouds Scattered Clouds  
Wind Chill: 16°   Ceiling: Unl
Heat Index: 16°   Visibility: 10mi
Dew Point: 10°   Wind: 6mph
Humidity: 67%   Direction: 250°WSW
Pressure: 30.13"   Gusts: NA
Location:  37.09°N, 88.89°W
Report Text: KPAH 241553Z 25005KT 10SM SCT029 16/10 A3013 RMK AO2 SLP201 T01610100
Loading
Personal Weather Stations






























Interactive Weather Map
Tropical Storm Tracking
New forecast layout! Learn more

10-Day Weather Forecast

Advertisements
Track Severe Weather on mobile